createdAt,value
2023-05-05T00:02:07.906Z,77006.44
2023-05-05T00:04:35.343Z,77004.41
2023-05-05T00:07:02.588Z,76998.34
2023-05-05T00:09:30.404Z,76998.34
2023-05-05T00:11:57.511Z,76998.34
2023-05-05T00:14:24.800Z,76990.22
2023-05-05T00:16:53.025Z,76986.16
2023-05-05T00:19:20.571Z,76994.28
2023-05-05T00:21:48.464Z,76988.19
2023-05-05T00:24:15.430Z,76990.22
2023-05-05T00:26:42.888Z,76994.28
2023-05-05T00:29:10.048Z,76990.22
2023-05-05T00:31:37.810Z,76994.28
2023-05-05T00:34:04.780Z,76994.28
2023-05-05T00:36:32.152Z,77000.38
2023-05-05T00:38:59.102Z,77004.41
2023-05-05T00:41:26.901Z,77002.41
2023-05-05T00:43:53.811Z,77002.41
2023-05-05T00:46:26.721Z,77002.41
2023-05-05T00:48:54.801Z,77002.41
2023-05-05T00:51:22.883Z,77002.41
2023-05-05T00:53:50.448Z,77002.41
2023-05-05T00:56:19.973Z,77002.41
2023-05-05T00:58:46.910Z,76998.34
2023-05-05T01:01:15.303Z,76996.31
2023-05-05T01:03:42.536Z,77002.41
2023-05-05T01:06:28.173Z,77002.41
2023-05-05T01:09:17.899Z,77000.38
2023-05-05T01:12:09.895Z,77006.44
2023-05-05T01:14:40.385Z,77010.50
2023-05-05T01:17:17.306Z,77008.47
2023-05-05T01:20:15.534Z,77004.41
2023-05-05T01:22:47.067Z,76998.34
2023-05-05T01:25:43.261Z,77002.41
2023-05-05T01:28:39.477Z,76994.28
2023-05-05T01:31:18.339Z,76998.34
2023-05-05T01:33:53.379Z,76990.22
2023-05-05T01:36:26.030Z,76986.16
2023-05-05T01:38:58.434Z,76986.16
2023-05-05T01:41:32.669Z,76982.13
2023-05-05T01:44:03.119Z,76988.19
2023-05-05T01:46:30.605Z,76990.22
2023-05-05T01:48:58.937Z,76982.13
2023-05-05T01:51:28.082Z,76986.16
2023-05-05T01:53:59.324Z,76986.16
2023-05-05T01:56:27.829Z,76990.22
2023-05-05T01:58:56.258Z,76994.28
2023-05-05T02:01:26.714Z,76994.28
2023-05-05T02:03:59.303Z,76998.34
2023-05-05T02:06:29.756Z,76998.34
2023-05-05T02:08:58.563Z,77002.41
2023-05-05T02:11:27.970Z,76998.34
2023-05-05T02:13:57.486Z,76996.31
2023-05-05T02:16:25.318Z,76994.28
2023-05-05T02:18:54.686Z,76998.34
2023-05-05T02:21:22.807Z,76998.34
2023-05-05T02:23:52.160Z,76994.28
2023-05-05T02:26:22.436Z,76998.34
2023-05-05T02:28:58.717Z,77002.41
2023-05-05T02:31:28.010Z,77002.41
2023-05-05T02:33:58.214Z,77006.44
2023-05-05T02:36:29.628Z,77006.44
2023-05-05T02:39:07.314Z,77014.56
2023-05-05T02:41:39.632Z,77006.44
2023-05-05T02:44:15.790Z,77002.41
2023-05-05T02:46:43.262Z,76998.34
2023-05-05T02:49:10.524Z,76998.34
2023-05-05T02:51:39.574Z,76994.28
2023-05-05T02:54:14.695Z,76990.22
2023-05-05T02:56:49.060Z,76978.06
2023-05-05T02:59:41.818Z,76971.97
2023-05-05T03:02:27.431Z,76969.94
2023-05-05T03:05:04.324Z,76961.84
2023-05-05T03:07:41.188Z,76953.75
2023-05-05T03:10:20.315Z,76949.69
2023-05-05T03:12:57.409Z,76949.69
2023-05-05T03:15:41.925Z,76943.59
2023-05-05T03:18:10.938Z,76933.47
2023-05-05T03:20:41.184Z,76929.41
2023-05-05T03:23:13.247Z,76929.41
2023-05-05T03:25:45.001Z,76923.31
2023-05-05T03:28:20.172Z,76913.19
2023-05-05T03:30:47.699Z,76905.09
2023-05-05T03:33:16.860Z,76894.94
2023-05-05T03:35:44.321Z,76888.88
2023-05-05T03:38:13.210Z,76888.88
2023-05-05T03:40:44.627Z,76894.94
2023-05-05T03:43:16.358Z,76884.81
2023-05-05T03:45:43.958Z,76880.75
2023-05-05T03:48:11.517Z,76872.66
2023-05-05T03:50:40.727Z,76864.53
2023-05-05T03:53:08.533Z,76856.44
2023-05-05T03:55:35.912Z,76856.44
2023-05-05T03:58:02.921Z,76852.38
2023-05-05T04:00:30.307Z,76844.25
2023-05-05T04:02:57.727Z,76840.22
2023-05-05T04:05:26.609Z,76840.22
2023-05-05T04:07:54.136Z,76836.16
2023-05-05T04:10:21.578Z,76824.00
2023-05-05T04:12:49.026Z,76805.75
2023-05-05T04:15:17.109Z,76791.56
2023-05-05T04:17:44.793Z,76783.44
2023-05-05T04:20:12.589Z,76775.34
2023-05-05T04:22:41.132Z,76787.50
2023-05-05T04:25:09.216Z,76783.44
2023-05-05T04:27:36.525Z,76771.28
2023-05-05T04:30:04.680Z,76767.22
2023-05-05T04:32:33.320Z,76759.13
2023-05-05T04:35:00.928Z,76751.00
2023-05-05T04:37:28.299Z,76742.91
2023-05-05T04:39:56.128Z,76738.84
2023-05-05T04:42:23.409Z,76751.00
2023-05-05T04:44:50.679Z,76801.69
2023-05-05T04:47:18.193Z,76832.09
2023-05-05T04:49:45.745Z,76848.31
2023-05-05T04:52:15.904Z,76868.59
2023-05-05T04:54:43.360Z,76860.47
2023-05-05T04:57:10.425Z,76836.16
2023-05-05T04:59:37.763Z,76811.81
2023-05-05T05:02:06.589Z,76787.50
2023-05-05T05:04:33.794Z,76791.56
2023-05-05T05:07:01.607Z,76785.47
2023-05-05T05:09:29.041Z,76783.44
2023-05-05T05:12:00.685Z,76795.59
2023-05-05T05:14:28.226Z,76824.00
2023-05-05T05:16:55.569Z,76840.22
2023-05-05T05:19:24.232Z,76854.41
2023-05-05T05:21:51.755Z,76860.47
2023-05-05T05:24:19.198Z,76876.69
2023-05-05T05:26:46.965Z,76880.75
2023-05-05T05:29:14.694Z,76882.78
2023-05-05T05:31:41.654Z,76880.75
2023-05-05T05:34:10.759Z,76882.78
2023-05-05T05:36:40.698Z,76868.59
2023-05-05T05:39:08.249Z,76852.38
2023-05-05T05:41:35.599Z,76828.03
2023-05-05T05:44:02.597Z,76824.00
2023-05-05T05:46:30.244Z,76819.94
2023-05-05T05:48:57.935Z,76811.81
2023-05-05T05:51:25.748Z,76799.66
2023-05-05T05:53:52.952Z,76787.50
2023-05-05T05:56:20.225Z,76767.22
2023-05-05T05:58:48.757Z,76742.91
2023-05-05T06:01:18.006Z,76742.91
2023-05-05T06:03:45.888Z,76746.97
2023-05-05T06:06:13.214Z,76759.13
2023-05-05T06:08:40.627Z,76751.00
2023-05-05T06:11:08.292Z,76742.91
2023-05-05T06:13:35.589Z,76722.63
2023-05-05T06:16:02.932Z,76710.47
2023-05-05T06:18:30.695Z,76702.34
2023-05-05T06:20:58.024Z,76686.13
2023-05-05T06:23:27.806Z,76690.19
2023-05-05T06:25:59.874Z,76673.97
2023-05-05T06:28:27.311Z,76655.72
2023-05-05T06:30:54.599Z,76657.75
2023-05-05T06:33:21.552Z,76649.66
2023-05-05T06:35:51.390Z,76633.44
2023-05-05T06:38:18.363Z,76609.09
2023-05-05T06:40:49.368Z,76617.22
2023-05-05T06:43:17.131Z,76613.16
2023-05-05T06:45:52.097Z,76619.25
2023-05-05T06:48:19.205Z,76615.19
2023-05-05T06:50:46.747Z,76605.06
2023-05-05T06:53:13.790Z,76576.69
2023-05-05T06:55:48.128Z,76564.50
2023-05-05T06:58:15.547Z,76552.34
2023-05-05T07:00:43.476Z,76540.19
2023-05-05T07:03:11.536Z,76532.09
2023-05-05T07:05:39.001Z,76538.16
2023-05-05T07:08:06.712Z,76532.09
2023-05-05T07:10:34.547Z,76511.81
2023-05-05T07:13:03.860Z,76491.53
2023-05-05T07:15:31.191Z,76475.31
2023-05-05T07:17:58.607Z,76493.56
2023-05-05T07:20:26.869Z,76503.69
2023-05-05T07:22:54.270Z,76503.69
2023-05-05T07:25:22.094Z,76489.50
2023-05-05T07:27:49.501Z,76483.44
2023-05-05T07:30:19.082Z,76479.38
2023-05-05T07:32:46.889Z,76475.31
2023-05-05T07:35:14.791Z,76471.28
2023-05-05T07:37:44.524Z,76463.16
2023-05-05T07:40:13.364Z,76471.28
2023-05-05T07:42:40.511Z,76467.22
2023-05-05T07:45:08.420Z,76463.16
2023-05-05T07:47:35.552Z,76467.22
2023-05-05T07:50:05.023Z,76463.16
2023-05-05T07:52:45.376Z,76440.88
2023-05-05T07:55:17.726Z,76430.72
2023-05-05T07:57:45.209Z,76430.72
2023-05-05T08:00:13.576Z,76434.78
2023-05-05T08:02:41.620Z,76442.91
2023-05-05T08:05:09.804Z,76438.84
2023-05-05T08:07:41.484Z,76418.56
2023-05-05T08:10:12.209Z,76394.25
2023-05-05T08:12:40.699Z,76392.22
2023-05-05T08:15:08.971Z,76398.28
2023-05-05T08:17:50.979Z,76402.34
2023-05-05T08:20:20.233Z,76394.25
2023-05-05T08:22:47.662Z,76392.22
2023-05-05T08:25:15.102Z,76378.03
2023-05-05T08:27:43.147Z,76373.97
2023-05-05T08:30:11.960Z,76386.13
2023-05-05T08:32:39.003Z,76394.25
2023-05-05T08:35:07.583Z,76398.28
2023-05-05T08:37:35.269Z,76386.13
2023-05-05T08:40:03.458Z,76361.81
2023-05-05T08:42:38.000Z,76361.81
2023-05-05T08:45:08.808Z,76363.84
2023-05-05T08:47:38.028Z,76373.97
2023-05-05T08:50:06.374Z,76369.91
2023-05-05T08:52:44.813Z,76345.59
2023-05-05T08:55:24.469Z,76341.53
2023-05-05T08:57:56.095Z,76325.31
2023-05-05T09:00:24.802Z,76309.13
2023-05-05T09:02:54.559Z,76256.41
2023-05-05T09:05:22.336Z,76244.25
2023-05-05T09:07:50.704Z,76244.25
2023-05-05T09:10:19.704Z,76219.94
2023-05-05T09:12:51.206Z,76185.47
2023-05-05T09:15:19.254Z,76159.13
2023-05-05T09:17:46.877Z,76171.28
2023-05-05T09:20:15.286Z,76177.38
2023-05-05T09:22:45.149Z,76187.50
2023-05-05T09:25:16.332Z,76199.66
2023-05-05T09:27:47.400Z,76199.66
2023-05-05T09:30:18.527Z,76209.78
2023-05-05T09:32:51.008Z,76217.91
2023-05-05T09:35:19.588Z,76199.66
2023-05-05T09:37:47.276Z,76191.56
2023-05-05T09:40:17.150Z,76215.88
2023-05-05T09:42:45.016Z,76219.94
2023-05-05T09:45:18.566Z,76230.06
2023-05-05T09:47:47.218Z,76236.16
2023-05-05T09:50:18.837Z,76215.88
2023-05-05T09:53:06.603Z,76211.81
2023-05-05T09:55:36.229Z,76207.78
2023-05-05T09:58:20.089Z,76219.94
2023-05-05T10:00:47.995Z,76234.13
2023-05-05T10:03:15.398Z,76234.13
2023-05-05T10:05:50.716Z,76246.28
2023-05-05T10:08:22.466Z,76252.34
2023-05-05T10:10:51.973Z,76280.72
2023-05-05T10:13:21.483Z,76284.78
2023-05-05T10:15:51.597Z,76284.78
2023-05-05T10:18:28.584Z,76268.56
2023-05-05T10:21:02.193Z,76252.34
2023-05-05T10:23:48.590Z,76244.25
2023-05-05T10:26:19.477Z,76223.97
2023-05-05T10:28:46.917Z,76228.03
2023-05-05T10:31:26.600Z,76252.34
2023-05-05T10:34:03.408Z,76248.31
2023-05-05T10:36:32.132Z,76236.16
2023-05-05T10:39:00.155Z,76240.19
2023-05-05T10:41:30.972Z,76252.34
2023-05-05T10:44:00.865Z,76276.69
2023-05-05T10:46:29.757Z,76276.69
2023-05-05T10:49:18.771Z,76276.69
2023-05-05T10:52:27.832Z,76262.50
2023-05-05T10:55:37.052Z,76272.63
2023-05-05T10:58:04.409Z,76264.53
2023-05-05T11:00:41.094Z,76248.31
2023-05-05T11:03:17.820Z,76240.19
2023-05-05T11:06:03.789Z,76219.94
2023-05-05T11:08:33.239Z,76207.78
2023-05-05T11:11:01.248Z,76179.38
2023-05-05T11:13:29.214Z,76173.31
2023-05-05T11:15:58.304Z,76183.44
2023-05-05T11:18:37.669Z,76183.44
2023-05-05T11:21:15.840Z,76171.28
2023-05-05T11:23:53.327Z,76187.50
2023-05-05T11:26:51.327Z,76203.72
2023-05-05T11:29:18.840Z,76223.97
2023-05-05T11:31:47.848Z,76203.72
2023-05-05T11:34:29.520Z,76211.81
2023-05-05T11:36:57.892Z,76191.56
2023-05-05T11:39:32.950Z,76179.38
2023-05-05T11:42:10.119Z,76171.28
2023-05-05T11:44:38.208Z,76171.28
2023-05-05T11:47:06.053Z,76167.22
2023-05-05T11:49:35.473Z,76171.28
2023-05-05T11:52:04.667Z,76183.44
2023-05-05T11:54:35.607Z,76187.50
2023-05-05T11:57:05.962Z,76219.94
2023-05-05T11:59:36.490Z,76252.34
2023-05-05T12:02:05.184Z,76260.47
2023-05-05T12:04:33.432Z,76232.09
2023-05-05T12:07:01.089Z,76232.09
2023-05-05T12:09:28.517Z,76223.97
2023-05-05T12:11:57.375Z,76219.94
2023-05-05T12:14:25.846Z,76215.88
2023-05-05T12:17:01.488Z,76219.94
2023-05-05T12:19:33.273Z,76213.84
2023-05-05T12:22:01.555Z,76201.69
2023-05-05T12:24:33.079Z,76203.72
2023-05-05T12:27:11.762Z,76203.72
2023-05-05T12:29:39.820Z,76203.72
2023-05-05T12:32:06.984Z,76179.38
2023-05-05T12:34:34.748Z,76157.09
2023-05-05T12:37:03.451Z,76155.06
2023-05-05T12:39:37.830Z,76155.06
2023-05-05T12:42:06.443Z,76191.56
2023-05-05T12:44:37.907Z,76187.50
2023-05-05T12:47:06.319Z,76195.59
2023-05-05T12:49:51.428Z,76203.72
2023-05-05T12:52:18.992Z,76213.84
2023-05-05T12:54:55.073Z,76201.69
2023-05-05T12:57:23.586Z,76191.56
2023-05-05T12:59:52.844Z,76183.44
2023-05-05T13:02:21.112Z,76179.38
2023-05-05T13:04:51.055Z,76175.34
2023-05-05T13:07:19.893Z,76175.34
2023-05-05T13:09:51.393Z,76183.44
2023-05-05T13:12:18.899Z,76211.81
2023-05-05T13:14:46.898Z,76221.94
2023-05-05T13:17:14.765Z,76215.88
2023-05-05T13:19:45.926Z,76215.88
2023-05-05T13:22:13.587Z,76219.94
2023-05-05T13:24:51.680Z,76219.94
2023-05-05T13:27:21.375Z,76207.78
2023-05-05T13:29:49.693Z,76205.75
2023-05-05T13:32:17.062Z,76211.81
2023-05-05T13:34:44.509Z,76205.75
2023-05-05T13:37:11.975Z,76193.56
2023-05-05T13:39:39.511Z,76167.22
2023-05-05T13:42:06.859Z,76151.00
2023-05-05T13:44:35.389Z,76122.63
2023-05-05T13:47:03.073Z,76153.03
2023-05-05T13:49:30.391Z,76165.19
2023-05-05T13:51:58.775Z,76171.28
2023-05-05T13:54:26.213Z,76211.81
2023-05-05T13:56:53.486Z,76252.34
2023-05-05T13:59:22.063Z,76290.88
2023-05-05T14:01:49.362Z,76305.06
2023-05-05T14:04:16.760Z,76309.13
2023-05-05T14:06:43.939Z,76317.22
2023-05-05T14:09:11.372Z,76345.59
2023-05-05T14:11:38.562Z,76353.72
2023-05-05T14:14:06.208Z,76369.91
2023-05-05T14:16:33.351Z,76373.97
2023-05-05T14:19:00.772Z,76365.88
2023-05-05T14:21:28.523Z,76353.72
2023-05-05T14:23:55.863Z,76317.22
2023-05-05T14:26:22.860Z,76292.91
2023-05-05T14:28:50.236Z,76280.72
2023-05-05T14:31:17.864Z,76290.88
2023-05-05T14:33:45.283Z,76307.09
2023-05-05T14:36:12.260Z,76321.28
2023-05-05T14:38:40.280Z,76343.56
2023-05-05T14:41:07.601Z,76349.66
2023-05-05T14:43:35.708Z,76369.91
2023-05-05T14:46:06.866Z,76361.81
2023-05-05T14:48:34.706Z,76359.78
2023-05-05T14:51:01.744Z,76378.03
2023-05-05T14:53:29.219Z,76373.97
2023-05-05T14:55:56.280Z,76361.81
2023-05-05T14:58:24.698Z,76341.53
2023-05-05T15:00:52.951Z,76244.25
2023-05-05T15:03:20.901Z,76029.41
2023-05-05T15:05:47.983Z,75869.28
2023-05-05T15:08:17.056Z,75798.38
2023-05-05T15:10:44.110Z,75741.63
2023-05-05T15:13:12.002Z,75656.50
2023-05-05T15:15:38.966Z,75547.06
2023-05-05T15:18:06.462Z,75484.25
2023-05-05T15:20:33.510Z,75510.59
2023-05-05T15:23:01.711Z,75664.59
2023-05-05T15:25:29.030Z,75867.28
2023-05-05T15:27:56.747Z,76017.25
2023-05-05T15:30:23.627Z,76157.09
2023-05-05T15:32:51.324Z,76181.41
2023-05-05T15:35:18.234Z,76187.50
2023-05-05T15:37:46.184Z,76244.25
2023-05-05T15:40:13.315Z,76313.16
2023-05-05T15:42:41.014Z,76353.72
2023-05-05T15:45:09.423Z,76390.19
2023-05-05T15:47:37.147Z,76402.34
2023-05-05T15:50:05.489Z,76426.69
2023-05-05T15:52:33.101Z,76438.84
2023-05-05T15:55:00.860Z,76467.22
2023-05-05T15:57:28.296Z,76481.41
2023-05-05T15:59:55.357Z,76487.50
2023-05-05T16:02:22.725Z,76479.38
2023-05-05T16:04:50.718Z,76463.16
2023-05-05T16:07:17.951Z,76430.72
2023-05-05T16:09:45.976Z,76406.41
2023-05-05T16:12:13.459Z,76390.19
2023-05-05T16:14:40.891Z,76410.47
2023-05-05T16:17:09.049Z,76426.69
2023-05-05T16:19:36.379Z,76446.94
2023-05-05T16:22:03.760Z,76463.16
2023-05-05T16:24:31.152Z,76448.97
2023-05-05T16:26:58.276Z,76410.47
2023-05-05T16:29:26.030Z,76341.53
2023-05-05T16:31:53.350Z,76325.31
2023-05-05T16:34:21.421Z,76305.06
2023-05-05T16:36:48.693Z,76221.94
2023-05-05T16:39:15.920Z,76203.72
2023-05-05T16:41:43.191Z,76240.19
2023-05-05T16:44:10.666Z,76256.41
2023-05-05T16:46:40.062Z,76256.41
2023-05-05T16:49:07.521Z,76288.84
2023-05-05T16:51:34.620Z,76292.91
2023-05-05T16:54:02.050Z,76331.41
2023-05-05T16:56:29.462Z,76378.03
2023-05-05T16:58:56.638Z,76420.59
2023-05-05T17:01:23.960Z,76459.09
2023-05-05T17:03:51.243Z,76479.38
2023-05-05T17:06:18.551Z,76507.75
2023-05-05T17:08:46.769Z,76546.28
2023-05-05T17:11:14.064Z,76572.63
2023-05-05T17:13:41.177Z,76592.91
2023-05-05T17:16:08.975Z,76629.38
2023-05-05T17:18:37.188Z,76643.56
2023-05-05T17:21:04.978Z,76661.81
2023-05-05T17:23:32.569Z,76690.19
2023-05-05T17:25:59.898Z,76698.31
2023-05-05T17:28:28.346Z,76710.47
2023-05-05T17:30:59.586Z,76722.63
2023-05-05T17:33:26.806Z,76732.75
2023-05-05T17:35:54.780Z,76742.91
2023-05-05T17:38:22.113Z,76746.97
2023-05-05T17:40:49.640Z,76759.13
2023-05-05T17:43:16.546Z,76771.28
2023-05-05T17:45:44.216Z,76787.50
2023-05-05T17:48:11.063Z,76803.72
2023-05-05T17:50:38.411Z,76815.88
2023-05-05T17:53:05.290Z,76828.03
2023-05-05T17:55:33.031Z,76836.16
2023-05-05T17:57:59.919Z,76848.31
2023-05-05T18:00:27.399Z,76856.44
2023-05-05T18:02:54.699Z,76872.66
2023-05-05T18:05:22.597Z,76880.75
2023-05-05T18:07:49.786Z,76892.91
2023-05-05T18:10:17.158Z,76901.03
2023-05-05T18:12:44.069Z,76909.13
2023-05-05T18:15:12.123Z,76921.31
2023-05-05T18:17:39.460Z,76927.38
2023-05-05T18:20:09.322Z,76933.47
2023-05-05T18:22:37.862Z,76939.53
2023-05-05T18:25:08.045Z,76945.63
2023-05-05T18:27:36.187Z,76949.69
2023-05-05T18:30:04.843Z,76953.75
2023-05-05T18:32:32.685Z,76957.78
2023-05-05T18:34:59.934Z,76967.94
2023-05-05T18:37:28.007Z,76965.91
2023-05-05T18:39:55.195Z,76974.00
2023-05-05T18:42:22.659Z,76982.13
2023-05-05T18:44:49.913Z,76982.13
2023-05-05T18:47:17.077Z,76994.28
2023-05-05T18:49:45.595Z,76990.22
2023-05-05T18:52:13.607Z,76994.28
2023-05-05T18:54:41.057Z,76994.28
2023-05-05T18:57:08.264Z,76998.34
2023-05-05T18:59:35.410Z,77002.41
2023-05-05T19:02:03.019Z,77004.41
2023-05-05T19:04:32.192Z,77006.44
2023-05-05T19:07:00.294Z,77008.47
2023-05-05T19:09:27.950Z,77010.50
2023-05-05T19:11:55.517Z,77014.56
2023-05-05T19:14:22.916Z,77024.69
2023-05-05T19:16:50.520Z,77022.66
2023-05-05T19:19:18.183Z,77030.78
2023-05-05T19:21:45.861Z,77038.88
2023-05-05T19:24:13.158Z,77040.91
2023-05-05T19:26:40.486Z,77047.00
2023-05-05T19:29:08.092Z,77042.94
2023-05-05T19:31:35.463Z,77047.00
2023-05-05T19:34:04.959Z,77055.09
2023-05-05T19:36:34.468Z,77059.16
2023-05-05T19:39:03.290Z,77067.28
2023-05-05T19:41:31.259Z,77071.31
2023-05-05T19:43:58.795Z,77071.31
2023-05-05T19:46:26.654Z,77075.38
2023-05-05T19:48:54.352Z,77079.44
2023-05-05T19:51:21.465Z,77075.38
2023-05-05T19:53:48.906Z,77079.44
2023-05-05T19:56:17.166Z,77079.44
2023-05-05T19:58:54.938Z,77079.44
2023-05-05T20:01:22.146Z,77077.41
2023-05-05T20:03:49.830Z,77083.50
2023-05-05T20:06:16.891Z,77081.47
2023-05-05T20:08:44.564Z,77091.59
2023-05-05T20:11:11.880Z,77091.59
2023-05-05T20:13:40.153Z,77091.59
2023-05-05T20:16:07.864Z,77091.59
2023-05-05T20:18:35.267Z,77095.66
2023-05-05T20:21:02.551Z,77101.72
2023-05-05T20:23:30.757Z,77107.81
2023-05-05T20:25:58.451Z,77109.84
2023-05-05T20:28:25.987Z,77115.94
2023-05-05T20:30:52.871Z,77124.03
2023-05-05T20:33:20.145Z,77128.09
2023-05-05T20:35:47.410Z,77136.19
2023-05-05T20:38:14.674Z,77128.09
2023-05-05T20:40:42.212Z,77132.16
2023-05-05T20:43:09.423Z,77136.19
2023-05-05T20:45:37.250Z,77144.31
2023-05-05T20:48:07.456Z,77146.34
2023-05-05T20:50:38.639Z,77152.41
2023-05-05T20:53:10.480Z,77154.44
2023-05-05T20:55:37.633Z,77156.47
2023-05-05T20:58:06.924Z,77156.47
2023-05-05T21:00:34.418Z,77158.50
2023-05-05T21:03:02.859Z,77152.41
2023-05-05T21:05:31.599Z,77156.47
2023-05-05T21:08:00.884Z,77154.44
2023-05-05T21:10:33.383Z,77160.53
2023-05-05T21:13:04.273Z,77164.59
2023-05-05T21:15:32.081Z,77162.56
2023-05-05T21:17:59.355Z,77156.47
2023-05-05T21:20:26.810Z,77164.59
2023-05-05T21:22:53.959Z,77168.63
2023-05-05T21:25:21.683Z,77168.63
2023-05-05T21:27:49.412Z,77170.66
2023-05-05T21:30:17.120Z,77172.69
2023-05-05T21:32:45.000Z,77174.72
2023-05-05T21:35:12.457Z,77168.63
2023-05-05T21:37:39.881Z,77172.69
2023-05-05T21:40:11.127Z,77178.78
2023-05-05T21:42:39.127Z,77176.75
2023-05-05T21:45:06.791Z,77184.84
2023-05-05T21:47:34.356Z,77180.81
2023-05-05T21:50:01.951Z,77184.84
2023-05-05T21:52:29.234Z,77184.84
2023-05-05T21:54:56.518Z,77192.97
2023-05-05T21:57:23.903Z,77188.91
2023-05-05T21:59:51.058Z,77192.97
2023-05-05T22:02:18.437Z,77188.91
2023-05-05T22:04:48.785Z,77197.03
2023-05-05T22:07:16.335Z,77205.13
2023-05-05T22:09:43.491Z,77209.19
2023-05-05T22:12:10.998Z,77211.22
2023-05-05T22:14:38.104Z,77217.28
2023-05-05T22:17:05.590Z,77229.47
2023-05-05T22:19:32.659Z,77235.53
2023-05-05T22:22:00.223Z,77245.69
2023-05-05T22:24:27.237Z,77249.75
2023-05-05T22:26:56.876Z,77261.91
2023-05-05T22:29:23.834Z,77270.00
2023-05-05T22:31:51.463Z,77278.13
2023-05-05T22:34:22.131Z,77278.13
2023-05-05T22:36:49.816Z,77278.13
2023-05-05T22:39:18.580Z,77280.16
2023-05-05T22:41:46.925Z,77288.25
2023-05-05T22:44:14.217Z,77290.28
2023-05-05T22:46:42.201Z,77288.25
2023-05-05T22:49:09.555Z,77298.41
2023-05-05T22:51:37.932Z,77306.50
2023-05-05T22:54:04.954Z,77306.50
2023-05-05T22:56:32.705Z,77314.63
2023-05-05T22:58:59.729Z,77322.72
2023-05-05T23:01:27.365Z,77326.78
2023-05-05T23:03:54.360Z,77330.84
2023-05-05T23:06:21.798Z,77330.84
2023-05-05T23:08:49.313Z,77338.94
2023-05-05T23:11:17.140Z,77345.03
2023-05-05T23:13:44.083Z,77351.13
2023-05-05T23:16:11.809Z,77351.13
2023-05-05T23:18:38.914Z,77367.34
2023-05-05T23:21:06.514Z,77363.28
2023-05-05T23:23:33.495Z,77363.28
2023-05-05T23:26:00.936Z,77367.34
2023-05-05T23:28:27.892Z,77375.44
2023-05-05T23:30:55.638Z,77379.50
2023-05-05T23:33:22.711Z,77379.50
2023-05-05T23:35:50.556Z,77387.59
2023-05-05T23:38:17.562Z,77389.63
2023-05-05T23:40:44.845Z,77395.72
2023-05-05T23:43:12.184Z,77387.59
2023-05-05T23:45:39.358Z,77389.63
2023-05-05T23:48:06.970Z,77395.72
2023-05-05T23:50:34.199Z,77395.72
2023-05-05T23:53:01.666Z,77405.84
2023-05-05T23:55:28.840Z,77407.88
2023-05-05T23:57:55.927Z,77407.88
